Terminal Aerodrome Forecast
Issued by NWS Cleveland, OH

Home | Current Version | Previous Version | Graphics & Text | Print | Product List | Glossary On
Versions: 1 2 3 4 5 6 7 8 9 10 11 12 13 14 15 16 17 18
000
FTUS41 KCLE 222320
TAFYNG
TAF
KYNG 222320Z 2300/2324 26010KT P6SM VCSH SCT035 BKN150
      TEMPO 2301/2303 29010KT 3SM -SHRA BKN035
     FM230400 29008KT P6SM SCT045 BKN060
     FM230900 29008KT P6SM SKC
     FM231600 30012G18KT P6SM BKN050
     FM232200 31008KT P6SM BKN050=

USA.gov is the U.S. government's official web portal to all federal, state and local government web resources and services.